Time;durP1;ratioP1;P1;durP2;ratioP2;P2;SDS_P1;SDS_P2;PMS_P1;PMS_P2;Temp;Humidity;BMP_temperature;BMP_pressure;BME280_temperature;BME280_humidity;BME280_pressure;Samples;Min_cycle;Max_cycle;Signal;HPM_P1;HPM_P2
2024/01/05 00:00:53;;;;;;;16.77;2.92;;;8.40;99.90;;;8.68;83.85;99067.44;5033537;28;20067;-86
2024/01/05 00:03:21;;;;;;;16.40;3.22;;;8.50;99.90;;;8.68;83.76;99062.91;5014423;28;20572;-86
2024/01/05 00:05:49;;;;;;;10.45;3.00;;;8.50;99.90;;;8.68;83.90;99059.44;5033061;28;20531;-85
2024/01/05 00:08:18;;;;;;;11.82;2.95;;;8.50;99.90;;;8.69;84.08;99056.59;5026382;28;20060;-86
2024/01/05 00:10:45;;;;;;;13.50;2.88;;;8.50;99.90;;;8.71;84.30;99054.50;5022426;28;20555;-85
2024/01/05 00:13:13;;;;;;;15.85;3.10;;;8.50;99.90;;;8.75;84.24;99049.53;5031866;28;20049;-86
2024/01/05 00:15:40;;;;;;;13.43;3.28;;;8.60;99.90;;;8.76;84.34;99043.97;5032177;28;20049;-86
2024/01/05 00:18:08;;;;;;;13.75;2.90;;;8.50;99.90;;;8.76;84.40;99038.66;5032664;28;20129;-85
2024/01/05 00:20:36;;;;;;;10.60;2.70;;;8.60;99.90;;;8.80;84.35;99046.16;5027601;28;20042;-85
2024/01/05 00:23:04;;;;;;;12.52;3.30;;;8.60;99.90;;;8.77;84.07;99026.97;5012939;28;20057;-85
2024/01/05 00:25:33;;;;;;;18.50;2.92;;;8.60;99.90;;;8.79;84.33;99023.28;5015949;28;20041;-86
2024/01/05 00:28:00;;;;;;;15.55;3.05;;;8.60;99.90;;;8.77;84.20;99018.19;5016886;28;20049;-86
2024/01/05 00:30:28;;;;;;;14.13;2.67;;;8.60;99.90;;;8.80;84.24;99017.72;5021050;28;20045;-86
2024/01/05 00:32:56;;;;;;;14.00;3.38;;;8.60;99.90;;;8.80;84.38;99011.59;5018711;28;20053;-86
2024/01/05 00:35:23;;;;;;;17.08;3.03;;;8.60;99.90;;;8.80;84.25;99003.63;5030717;28;20528;-86
2024/01/05 00:37:51;;;;;;;13.95;3.15;;;8.60;99.90;;;8.79;84.29;98999.38;5042419;28;20504;-86
2024/01/05 00:40:19;;;;;;;11.45;2.78;;;8.60;99.90;;;8.80;84.46;98993.00;5016015;28;20046;-86
2024/01/05 00:42:50;;;;;;;17.67;3.15;;;8.60;99.90;;;8.81;84.41;98989.28;5033113;28;20124;-86
2024/01/05 00:45:17;;;;;;;18.50;3.90;;;8.60;99.90;;;8.81;84.24;98986.63;5032180;28;20045;-86
2024/01/05 00:47:45;;;;;;;13.23;3.33;;;8.60;99.90;;;8.81;84.21;98983.97;5027594;28;20038;-86
2024/01/05 00:50:14;;;;;;;15.82;2.83;;;8.60;99.90;;;8.80;84.01;98990.34;5016593;28;20064;-86
2024/01/05 00:52:41;;;;;;;24.50;3.33;;;8.60;99.90;;;8.76;83.72;98985.47;5052045;28;20549;-86
2024/01/05 00:55:10;;;;;;;13.35;2.72;;;8.60;99.90;;;8.76;83.93;98982.81;5026434;28;20041;-86
2024/01/05 00:57:37;;;;;;;16.92;3.53;;;8.60;99.90;;;8.79;84.03;98986.06;5035793;28;20076;-86
2024/01/05 01:00:10;;;;;;;13.05;3.22;;;8.60;99.90;;;8.76;83.78;98985.47;5033593;28;20129;-85
2024/01/05 01:02:37;;;;;;;16.08;2.95;;;8.60;99.90;;;8.76;83.84;98985.47;5017924;28;20056;-86
2024/01/05 01:05:05;;;;;;;14.63;2.80;;;8.60;99.90;;;8.77;84.07;98975.66;5033423;28;20048;-86
2024/01/05 01:07:33;;;;;;;14.23;2.88;;;8.60;99.90;;;8.80;84.20;98980.50;5034095;28;20069;-86
2024/01/05 01:10:00;;;;;;;17.67;3.35;;;8.60;99.90;;;8.83;84.25;98984.53;5049338;28;20489;-86
2024/01/05 01:12:28;;;;;;;15.02;3.28;;;8.70;99.90;;;8.83;84.45;98980.03;5025570;28;20084;-86
2024/01/05 01:14:56;;;;;;;13.52;2.88;;;8.70;99.90;;;8.85;84.47;98966.50;5032315;28;20115;-86
2024/01/05 01:17:25;;;;;;;13.45;2.67;;;8.70;99.90;;;8.87;84.24;98975.84;5020393;28;20521;-86
2024/01/05 01:19:53;;;;;;;10.32;2.70;;;8.70;99.90;;;8.84;84.37;98963.06;5032123;28;20105;-86
2024/01/05 01:22:20;;;;;;;13.90;3.28;;;8.70;99.90;;;8.87;84.43;98965.22;5016208;28;20084;-86
2024/01/05 01:24:47;;;;;;;10.95;2.75;;;8.70;99.90;;;8.86;84.49;98970.78;5032379;28;20045;-86
2024/01/05 01:27:15;;;;;;;15.05;2.78;;;8.70;99.90;;;8.85;84.38;98969.97;5033941;28;20456;-86
2024/01/05 01:29:44;;;;;;;13.45;2.72;;;8.70;99.90;;;8.85;84.37;98966.50;5009452;28;20065;-86
2024/01/05 01:32:11;;;;;;;15.88;3.10;;;8.70;99.90;;;8.88;84.35;98966.03;5005647;28;20087;-86
2024/01/05 01:34:41;;;;;;;14.57;3.17;;;8.70;99.90;;;8.88;84.11;98963.38;5027715;28;20045;-86
2024/01/05 01:37:09;;;;;;;15.07;2.78;;;8.70;99.90;;;8.86;83.89;98952.97;5032581;28;20049;-86
2024/01/05 01:39:37;;;;;;;10.75;3.17;;;8.70;99.90;;;8.86;84.15;98952.97;5033512;28;20048;-86
2024/01/05 01:42:05;;;;;;;14.88;2.97;;;8.60;99.90;;;8.86;84.03;98950.31;5016879;28;20053;-86
2024/01/05 01:44:33;;;;;;;13.02;2.70;;;8.60;99.90;;;8.86;83.73;98952.16;5033159;28;20088;-86
2024/01/05 01:47:01;;;;;;;9.38;2.42;;;8.60;99.90;;;8.85;83.72;98955.88;5017023;28;20046;-86
2024/01/05 01:49:29;;;;;;;19.58;3.35;;;8.60;99.90;;;8.79;83.39;98947.00;5033803;28;20483;-86
2024/01/05 01:51:58;;;;;;;17.15;3.28;;;8.60;99.90;;;8.76;83.43;98934.97;5033230;28;20473;-86
2024/01/05 01:54:32;;;;;;;13.07;3.28;;;8.60;99.90;;;8.72;83.49;98941.81;5032327;28;20049;-86
2024/01/05 01:57:01;;;;;;;17.75;2.95;;;8.60;99.90;;;8.76;83.73;98934.97;4997284;28;20134;-86
2024/01/05 01:59:30;;;;;;;15.15;2.47;;;8.60;99.90;;;8.77;83.67;98939.25;5016492;28;20034;-86
2024/01/05 02:01:59;;;;;;;14.02;2.70;;;8.60;99.90;;;8.77;83.59;98928.63;5017499;28;20449;-86
2024/01/05 02:04:29;;;;;;;10.13;2.72;;;8.60;99.90;;;8.75;83.45;98925.41;5033342;28;20068;-86
2024/01/05 02:06:58;;;;;;;12.73;2.78;;;8.60;99.90;;;8.73;83.33;98924.81;5016421;28;20073;-86
2024/01/05 02:09:25;;;;;;;21.33;2.80;;;8.50;99.90;;;8.76;83.43;98929.66;5032973;28;20037;-86
2024/01/05 02:11:53;;;;;;;13.50;3.13;;;8.60;99.90;;;8.77;83.40;98922.50;5017082;28;20053;-86
2024/01/05 02:14:21;;;;;;;11.05;2.45;;;8.60;99.90;;;8.77;83.29;98925.16;5032201;28;20042;-86
2024/01/05 02:16:49;;;;;;;12.05;2.83;;;8.60;99.90;;;8.76;83.03;98919.03;5045691;28;20045;-86
2024/01/05 02:19:17;;;;;;;15.98;2.60;;;8.50;99.90;;;8.76;82.86;98902.28;5030587;28;20049;-86
2024/01/05 02:21:50;;;;;;;9.45;2.35;;;8.50;99.90;;;8.73;83.07;98914.19;5034471;28;20091;-86
2024/01/05 02:24:20;;;;;;;15.55;3.10;;;8.50;99.90;;;8.75;83.04;98900.69;5035478;28;20091;-86
2024/01/05 02:26:49;;;;;;;13.90;2.17;;;8.50;99.90;;;8.72;82.97;98899.28;5032916;28;20530;-86
2024/01/05 02:29:21;;;;;;;10.38;2.30;;;8.50;99.90;;;8.74;83.24;98896.41;5033125;28;20057;-86
2024/01/05 02:31:49;;;;;;;13.98;2.80;;;8.50;99.90;;;8.73;83.16;98892.91;5021010;28;20465;-86
2024/01/05 02:34:17;;;;;;;11.75;2.65;;;8.50;99.90;;;8.73;83.01;98900.09;5029462;28;20496;-86
2024/01/05 02:36:45;;;;;;;16.85;2.38;;;8.50;99.90;;;8.70;82.76;98888.09;5032700;28;20049;-86
2024/01/05 02:39:13;;;;;;;12.60;2.50;;;8.50;99.90;;;8.69;82.75;98891.00;5033640;28;20064;-86
2024/01/05 02:41:42;;;;;;;13.65;2.38;;;8.40;99.90;;;8.69;82.66;98878.50;5033098;28;20046;-86
2024/01/05 02:44:10;;;;;;;13.70;2.90;;;8.40;99.90;;;8.69;82.47;98875.06;5024782;28;20049;-86
2024/01/05 02:46:38;;;;;;;12.88;2.28;;;8.40;99.90;;;8.68;82.48;98866.25;5019633;28;20100;-86
2024/01/05 02:49:06;;;;;;;13.52;2.25;;;8.40;99.90;;;8.67;82.07;98861.19;5032946;28;20045;-86
2024/01/05 02:51:34;;;;;;;12.50;2.38;;;8.40;99.90;;;8.66;82.27;98855.06;5024442;28;20041;-86
2024/01/05 02:54:01;;;;;;;18.88;2.95;;;8.40;99.90;;;8.67;82.14;98864.66;5032682;28;20068;-86
2024/01/05 02:56:31;;;;;;;15.95;3.10;;;8.40;99.90;;;8.62;82.01;98861.91;5033083;28;20049;-86
2024/01/05 02:59:00;;;;;;;19.50;2.60;;;8.40;99.90;;;8.65;82.20;98855.31;5026917;28;20052;-85
2024/01/05 03:01:28;;;;;;;13.20;2.13;;;8.40;99.90;;;8.64;82.28;98857.16;5006046;28;20053;-86
2024/01/05 03:03:55;;;;;;;16.30;2.55;;;8.40;99.90;;;8.65;82.19;98863.28;5047781;28;20045;-86
2024/01/05 03:06:23;;;;;;;12.02;2.45;;;8.40;99.90;;;8.64;82.01;98867.00;5032109;28;20057;-86
2024/01/05 03:08:55;;;;;;;13.57;2.80;;;8.40;99.90;;;8.65;82.03;98860.63;5031614;28;20056;-86
2024/01/05 03:11:22;;;;;;;13.10;2.85;;;8.40;99.90;;;8.64;81.81;98853.72;5030025;28;20041;-86
2024/01/05 03:13:49;;;;;;;11.80;2.58;;;8.40;99.90;;;8.60;81.63;98849.91;5031634;28;20104;-86
2024/01/05 03:16:18;;;;;;;10.63;2.22;;;8.30;99.90;;;8.56;82.04;98852.22;5041156;28;20073;-86
2024/01/05 03:18:49;;;;;;;14.02;2.80;;;8.30;99.90;;;8.56;82.07;98836.28;5025061;28;20041;-86
2024/01/05 03:21:17;;;;;;;9.88;2.50;;;8.30;99.90;;;8.57;82.00;98842.41;5027679;28;20053;-86
2024/01/05 03:23:44;;;;;;;14.05;2.60;;;8.30;99.90;;;8.59;82.01;98845.63;5030397;28;20041;-86
2024/01/05 03:26:12;;;;;;;16.92;3.45;;;8.30;99.90;;;8.59;81.96;98843.78;5010243;28;20475;-86
2024/01/05 03:28:39;;;;;;;13.40;2.60;;;8.30;99.90;;;8.59;81.70;98840.28;5016225;28;20059;-86
2024/01/05 03:31:12;;;;;;;14.07;2.50;;;8.30;99.90;;;8.58;81.45;98844.00;5033606;28;20048;-86
2024/01/05 03:33:43;;;;;;;19.08;3.58;;;8.30;99.90;;;8.55;81.57;98834.66;5033411;28;20103;-85
2024/01/05 03:36:11;;;;;;;12.07;2.38;;;8.30;99.90;;;8.54;81.52;98826.91;5033921;28;20041;-85
2024/01/05 03:38:38;;;;;;;9.73;2.47;;;8.20;99.90;;;8.49;81.26;98831.13;5032392;28;20049;-85
2024/01/05 03:41:06;;;;;;;15.52;2.63;;;8.20;99.90;;;8.51;81.76;98820.25;5014670;28;20045;-86
2024/01/05 03:43:34;;;;;;;10.38;2.20;;;8.30;99.90;;;8.54;81.52;98810.97;5033319;28;20052;-86
2024/01/05 03:46:02;;;;;;;11.75;2.75;;;8.30;99.90;;;8.53;81.83;98812.84;5031836;28;20109;-86
2024/01/05 03:48:29;;;;;;;10.57;2.10;;;8.30;99.90;;;8.51;81.68;98807.75;5037447;28;20041;-86
2024/01/05 03:50:58;;;;;;;13.07;2.50;;;8.20;99.90;;;8.50;81.87;98816.78;5030057;28;20120;-86
2024/01/05 03:53:27;;;;;;;14.18;2.70;;;8.30;99.90;;;8.51;81.95;98802.44;5031965;28;20489;-86
2024/01/05 03:55:54;;;;;;;9.75;2.38;;;8.30;99.90;;;8.53;81.80;98807.53;5031129;28;20508;-86
2024/01/05 03:58:21;;;;;;;12.75;2.50;;;8.30;99.90;;;8.38;81.05;98805.41;5031519;28;20133;-86
2024/01/05 04:00:49;;;;;;;10.75;2.40;;;8.30;99.90;;;8.42;81.13;98790.59;5032552;28;20041;-86
2024/01/05 04:03:17;;;;;;;11.70;2.60;;;8.20;99.90;;;8.46;81.26;98796.25;5035196;28;20049;-86
2024/01/05 04:05:47;;;;;;;17.33;2.40;;;8.20;99.90;;;8.46;81.43;98798.91;5033778;28;20069;-86
2024/01/05 04:08:16;;;;;;;11.43;2.65;;;8.20;99.90;;;8.47;81.28;98800.50;5006790;28;20555;-86
2024/01/05 04:10:43;;;;;;;16.75;3.15;;;8.20;99.90;;;8.46;81.34;98791.75;5028721;28;20128;-86
2024/01/05 04:13:11;;;;;;;14.05;2.88;;;8.20;99.90;;;8.47;80.74;98798.66;5030009;28;20057;-86
2024/01/05 04:15:39;;;;;;;13.90;2.70;;;8.20;99.90;;;8.47;81.20;98789.88;5018622;28;20129;-85
2024/01/05 04:18:08;;;;;;;11.93;2.55;;;8.20;99.90;;;8.48;81.62;98786.19;5037146;28;20049;-86
2024/01/05 04:20:35;;;;;;;11.77;2.40;;;8.20;99.90;;;8.49;81.83;98785.97;5036909;28;20463;-86
2024/01/05 04:23:03;;;;;;;11.50;2.17;;;8.20;99.90;;;8.48;81.80;98786.19;5036335;28;20088;-86
2024/01/05 04:25:32;;;;;;;12.23;2.42;;;8.20;99.90;;;8.49;81.73;98782.47;5037128;28;20041;-86
2024/01/05 04:27:59;;;;;;;17.25;3.13;;;8.30;99.90;;;8.48;81.95;98789.63;5030843;28;20038;-86
2024/01/05 04:30:27;;;;;;;14.63;2.78;;;8.30;99.90;;;8.50;82.10;98781.44;5034577;28;20049;-86
2024/01/05 04:32:55;;;;;;;11.43;2.60;;;8.30;99.90;;;8.51;82.56;98793.69;5037469;28;20053;-85
2024/01/05 04:35:22;;;;;;;18.80;2.70;;;8.30;99.90;;;8.52;82.67;98776.69;5033629;28;20401;-86
2024/01/05 04:37:50;;;;;;;10.88;2.67;;;8.30;99.90;;;8.54;82.64;98771.97;5010666;28;20498;-86
2024/01/05 04:40:18;;;;;;;13.63;2.60;;;8.30;99.90;;;8.54;82.41;98771.97;5020023;28;20049;-85
2024/01/05 04:42:47;;;;;;;12.02;2.53;;;8.30;99.90;;;8.56;82.28;98779.69;5027515;28;20143;-85
2024/01/05 04:45:16;;;;;;;8.80;2.33;;;8.40;99.90;;;8.61;82.29;98767.28;5031643;28;20083;-86
2024/01/05 04:47:46;;;;;;;10.77;2.42;;;8.40;99.90;;;8.60;82.35;98768.34;5020782;28;20568;-86
2024/01/05 04:50:13;;;;;;;14.15;3.17;;;8.40;99.90;;;8.54;81.67;98763.16;5021083;28;20124;-86
2024/01/05 04:52:41;;;;;;;13.90;3.00;;;8.40;99.90;;;8.54;81.77;98758.69;5036366;28;20052;-85
2024/01/05 04:55:09;;;;;;;9.80;2.28;;;8.40;99.90;;;8.57;82.00;98760.03;5037583;28;20046;-85
2024/01/05 04:57:37;;;;;;;15.07;2.47;;;8.40;99.90;;;8.57;82.18;98752.06;5054455;28;20041;-85
2024/01/05 05:00:09;;;;;;;16.48;2.83;;;8.40;99.90;;;8.54;82.29;98750.69;5027210;28;20041;-86
2024/01/05 05:02:36;;;;;;;14.43;2.38;;;8.40;99.90;;;8.54;82.16;98742.72;5003142;28;20041;-86
2024/01/05 05:05:05;;;;;;;10.27;2.50;;;8.40;99.90;;;8.46;81.90;98756.41;5020301;28;20103;-85
2024/01/05 05:07:32;;;;;;;15.52;2.90;;;8.40;99.90;;;8.44;81.87;98739.88;4984491;28;20124;-86
2024/01/05 05:10:00;;;;;;;9.50;2.50;;;8.40;99.90;;;8.41;81.76;98748.34;5032904;28;20096;-85
2024/01/05 05:12:28;;;;;;;12.48;2.50;;;8.40;99.90;;;8.42;82.05;98753.41;5033954;28;20041;-85
2024/01/05 05:14:55;;;;;;;11.88;2.42;;;8.40;99.90;;;8.45;81.57;98744.16;5018197;28;20050;-85
2024/01/05 05:17:24;;;;;;;9.55;2.50;;;8.50;99.90;;;8.40;81.72;98736.13;5035899;28;20571;-85
2024/01/05 05:19:54;;;;;;;17.50;2.70;;;8.50;99.90;;;8.42;82.23;98734.00;5033835;28;20107;-85
2024/01/05 05:22:22;;;;;;;14.98;2.88;;;8.40;99.90;;;8.42;81.75;98726.84;5034266;28;20041;-85
2024/01/05 05:24:54;;;;;;;10.57;2.47;;;8.40;99.90;;;8.49;82.35;98726.69;5034783;28;20041;-85
2024/01/05 05:27:22;;;;;;;12.85;2.55;;;8.50;99.90;;;8.53;82.70;98722.50;5031262;28;20046;-85
2024/01/05 05:29:49;;;;;;;10.25;2.78;;;8.50;99.90;;;8.57;82.68;98717.50;5026109;28;20042;-85
2024/01/05 05:32:17;;;;;;;10.02;2.33;;;8.50;99.90;;;8.58;82.50;98722.56;5020417;28;20095;-85
2024/01/05 05:34:46;;;;;;;13.90;2.42;;;8.50;99.90;;;8.63;82.53;98719.19;5034781;28;20091;-85
2024/01/05 05:37:13;;;;;;;8.55;2.40;;;8.60;99.90;;;8.64;82.61;98712.88;5036013;28;20053;-85
2024/01/05 05:39:41;;;;;;;14.05;2.97;;;8.60;99.90;;;8.67;82.77;98705.19;5034904;28;20061;-85
2024/01/05 05:42:08;;;;;;;7.55;2.00;;;8.60;99.90;;;8.69;82.72;98710.28;5033276;28;20501;-85
2024/01/05 05:44:36;;;;;;;10.18;2.30;;;8.60;99.90;;;8.70;82.83;98704.72;5015971;28;20084;-86
2024/01/05 05:47:04;;;;;;;10.13;3.00;;;8.60;99.90;;;8.70;82.24;98703.91;5029153;28;20045;-86
2024/01/05 05:49:31;;;;;;;10.95;2.28;;;8.60;99.90;;;8.68;82.33;98696.16;5036743;28;20132;-85
2024/01/05 05:52:00;;;;;;;7.95;1.90;;;8.60;99.90;;;8.68;82.47;98690.84;5032458;28;20473;-85
2024/01/05 05:54:28;;;;;;;10.40;2.13;;;8.60;99.90;;;8.67;82.16;98697.22;5035403;28;20052;-85
2024/01/05 05:56:56;;;;;;;10.73;2.47;;;8.60;99.90;;;8.64;81.22;98692.41;5032340;28;20099;-85
2024/01/05 05:59:24;;;;;;;11.05;2.65;;;8.50;99.90;;;8.61;80.77;98690.22;4984578;28;20536;-86
2024/01/05 06:01:51;;;;;;;12.45;2.40;;;8.50;99.90;;;8.59;80.73;98691.50;5034185;28;20073;-88
2024/01/05 06:04:19;;;;;;;13.73;2.35;;;8.40;99.90;;;8.59;81.17;98689.66;5034911;28;20041;-87
2024/01/05 06:06:48;;;;;;;9.68;2.50;;;8.50;99.90;;;8.59;81.37;98684.34;5025487;28;20412;-87
2024/01/05 06:09:17;;;;;;;7.82;2.30;;;8.50;99.90;;;8.59;81.21;98681.69;5002098;28;20045;-83
2024/01/05 06:11:45;;;;;;;9.43;2.15;;;8.50;99.90;;;8.62;81.20;98683.06;5041687;28;20041;-83
2024/01/05 06:14:13;;;;;;;8.88;2.00;;;8.50;99.90;;;8.59;80.87;98680.88;5044870;28;20053;-83
2024/01/05 06:16:41;;;;;;;7.43;2.10;;;8.50;99.90;;;8.64;81.02;98683.63;5034689;28;20042;-83
2024/01/05 06:19:09;;;;;;;10.45;2.30;;;8.50;99.90;;;8.63;81.02;98680.16;5025366;28;20041;-83
2024/01/05 06:21:36;;;;;;;15.43;3.13;;;8.50;99.90;;;8.53;79.79;98682.66;5042246;28;20041;-83
2024/01/05 06:24:05;;;;;;;9.48;1.90;;;8.40;99.90;;;8.56;80.42;98682.19;5038757;28;20105;-82
2024/01/05 06:26:34;;;;;;;11.85;2.53;;;8.40;99.90;;;8.58;80.67;98674.75;5040771;28;20048;-82
2024/01/05 06:29:02;;;;;;;11.00;2.40;;;8.40;99.90;;;8.55;80.32;98672.59;5035129;28;20049;-82
2024/01/05 06:31:29;;;;;;;7.35;1.90;;;8.40;99.90;;;8.56;80.03;98671.53;5040081;28;20068;-82
2024/01/05 06:33:57;;;;;;;10.75;2.30;;;8.40;99.90;;;8.57;79.98;98670.50;5041474;28;20049;-82
2024/01/05 06:36:25;;;;;;;9.15;2.00;;;8.40;99.90;;;8.46;78.27;98672.19;5035123;28;20042;-82
2024/01/05 06:38:52;;;;;;;10.82;2.55;;;8.40;99.90;;;8.52;79.56;98675.72;5040098;28;20057;-82
2024/01/05 06:41:20;;;;;;;11.35;2.40;;;8.40;99.90;;;8.51;79.23;98666.97;5040600;28;20033;-83
2024/01/05 06:43:50;;;;;;;10.20;1.98;;;8.40;99.90;;;8.53;79.34;98672.03;5041677;28;20045;-83
2024/01/05 06:46:17;;;;;;;9.57;2.10;;;8.40;99.90;;;8.52;78.90;98678.38;5040773;28;20045;-83
2024/01/05 06:48:45;;;;;;;10.80;1.80;;;8.40;99.90;;;8.53;79.13;98677.34;5020882;28;20433;-83
2024/01/05 06:51:12;;;;;;;10.15;2.05;;;8.40;99.90;;;8.55;79.47;98682.44;5056025;28;20057;-82
2024/01/05 06:53:40;;;;;;;10.95;2.17;;;8.40;99.90;;;8.56;79.41;98681.38;5040891;28;20048;-83
2024/01/05 06:56:08;;;;;;;13.05;2.10;;;8.40;99.90;;;8.50;78.70;98691.13;5024887;28;20068;-83
2024/01/05 06:58:36;;;;;;;9.00;2.20;;;8.40;99.90;;;8.48;78.32;98683.38;5034955;28;20072;-82
2024/01/05 07:01:05;;;;;;;10.23;2.17;;;8.30;99.90;;;8.51;78.79;98690.06;5046519;28;20037;-83
2024/01/05 07:03:33;;;;;;;9.93;2.30;;;8.40;99.90;;;8.50;78.83;98685.81;5041368;28;20052;-83
2024/01/05 07:06:02;;;;;;;9.77;1.80;;;8.40;99.90;;;8.51;79.49;98685.56;5021844;28;20127;-82
2024/01/05 07:08:31;;;;;;;9.63;2.00;;;8.40;99.90;;;8.54;79.47;98688.75;5035737;28;20524;-83
2024/01/05 07:10:59;;;;;;;6.88;2.05;;;8.40;99.90;;;8.58;79.79;98673.94;5038675;28;20049;-83
2024/01/05 07:13:26;;;;;;;10.48;2.25;;;8.40;99.90;;;8.58;80.12;98681.91;5038547;28;20524;-83
2024/01/05 07:15:55;;;;;;;9.70;2.00;;;8.40;99.90;;;8.54;79.34;98686.94;5039072;28;20055;-83
2024/01/05 07:18:23;;;;;;;6.47;1.77;;;8.40;99.90;;;8.49;79.46;98682.34;5041746;28;20041;-83
2024/01/05 07:20:51;;;;;;;5.25;1.70;;;8.50;99.90;;;8.45;77.92;98673.25;5053330;28;20052;-83
2024/01/05 07:23:19;;;;;;;10.55;1.98;;;8.50;99.90;;;8.50;78.76;98672.53;5020456;28;20041;-83
2024/01/05 07:25:46;;;;;;;8.65;2.10;;;8.50;99.90;;;8.57;79.49;98678.47;5039921;28;20095;-83
2024/01/05 07:28:13;;;;;;;7.90;1.90;;;8.50;99.90;;;8.51;77.01;98676.78;5041592;28;20049;-82
2024/01/05 07:30:41;;;;;;;8.02;1.92;;;8.50;99.90;;;8.57;78.05;98685.63;5029255;28;20087;-83
2024/01/05 07:33:09;;;;;;;4.70;1.52;;;8.50;99.90;;;8.55;77.64;98680.56;5038331;28;20049;-88
2024/01/05 07:35:40;;;;;;;9.27;1.65;;;8.60;99.90;;;8.54;77.97;98678.97;4999084;28;20460;-89
2024/01/05 07:38:07;;;;;;;8.27;1.85;;;8.60;99.90;;;8.54;77.80;98667.50;5032759;28;20057;-84
2024/01/05 07:40:35;;;;;;;9.27;2.22;;;8.50;99.90;;;8.49;75.86;98678.84;5036509;28;20045;-82
2024/01/05 07:43:03;;;;;;;6.47;2.08;;;8.60;99.90;;;8.48;75.58;98685.22;5037804;28;20046;-83
2024/01/05 07:45:30;;;;;;;8.15;1.90;;;8.60;99.90;;;8.52;76.28;98681.03;5050920;28;20049;-83
2024/01/05 07:48:00;;;;;;;8.52;2.05;;;8.60;99.90;;;8.57;77.14;98686.44;5035797;28;20060;-88
2024/01/05 07:50:28;;;;;;;13.73;3.88;;;8.60;99.90;;;8.57;76.96;98682.97;5015784;28;20389;-88
2024/01/05 07:52:57;;;;;;;12.45;3.83;;;8.60;99.90;;;8.52;75.78;98686.34;5031810;28;20046;-86
2024/01/05 07:55:24;;;;;;;10.90;3.08;;;8.60;99.90;;;8.52;75.32;98689.81;4999184;28;20112;-85
2024/01/05 07:57:52;;;;;;;8.20;2.53;;;8.70;99.90;;;8.59;75.83;98691.50;5033513;28;20092;-85
2024/01/05 08:00:20;;;;;;;9.40;2.90;;;8.70;99.90;;;8.62;77.14;98699.00;5033066;28;20397;-85
2024/01/05 08:02:49;;;;;;;13.63;4.90;;;8.70;99.90;;;8.57;75.59;98693.59;5030436;28;20069;-87
2024/01/05 08:05:18;;;;;;;12.50;3.10;;;8.70;99.90;;;8.60;75.43;98688.63;5027821;28;20040;-87
2024/01/05 08:07:45;;;;;;;10.18;2.75;;;8.70;99.90;;;8.66;76.54;98692.97;5015605;28;20038;-88
2024/01/05 08:10:15;;;;;;;8.98;3.03;;;8.70;99.90;;;8.65;76.22;98690.56;5028596;28;20065;-86
2024/01/05 08:12:42;;;;;;;6.57;2.53;;;8.70;99.90;;;8.66;76.15;98684.19;5031122;28;20140;-86
2024/01/05 08:15:10;;;;;;;9.57;3.17;;;8.70;99.90;;;8.64;76.45;98695.06;5032570;28;20092;-85
2024/01/05 08:17:38;;;;;;;11.20;2.70;;;8.70;99.90;;;8.64;76.28;98695.06;5033534;28;20076;-85
2024/01/05 08:20:07;;;;;;;11.55;2.40;;;8.70;99.90;;;8.61;74.71;98686.75;5027216;28;20050;-86
2024/01/05 08:22:36;;;;;;;11.27;2.40;;;8.70;99.90;;;8.65;74.60;98688.69;5047207;28;20487;-86
2024/01/05 08:25:03;;;;;;;12.77;2.72;;;8.70;99.90;;;8.64;73.88;98687.09;5017436;28;20042;-86
2024/01/05 08:27:32;;;;;;;7.25;1.70;;;9.00;99.90;;;8.71;74.67;98687.72;5025499;28;20622;-86
2024/01/05 08:30:00;;;;;;;5.88;1.63;;;8.80;99.90;;;8.73;75.21;98693.59;5048080;28;20397;-86
2024/01/05 08:32:28;;;;;;;6.10;1.80;;;8.80;99.90;;;8.67;74.77;98699.88;5032020;28;20073;-86
2024/01/05 08:34:56;;;;;;;4.53;1.42;;;8.80;99.90;;;8.71;75.21;98689.56;5015026;28;20049;-86
2024/01/05 08:37:24;;;;;;;9.13;1.83;;;8.80;99.90;;;8.66;73.81;98687.63;5033276;28;20052;-85
2024/01/05 08:39:52;;;;;;;7.00;1.80;;;8.80;99.90;;;8.67;74.60;98688.44;5031495;28;20053;-86
2024/01/05 08:42:20;;;;;;;7.00;1.70;;;8.80;99.90;;;8.68;74.31;98696.16;5000664;23;20057;-88
2024/01/05 08:44:50;;;;;;;8.52;1.65;;;8.80;99.90;;;8.67;74.23;98691.09;4976114;28;20043;-89
2024/01/05 08:47:18;;;;;;;5.57;1.50;;;8.80;99.90;;;8.64;73.69;98687.09;4996050;28;20039;-87
2024/01/05 08:49:46;;;;;;;7.13;1.75;;;8.80;99.90;;;8.66;73.81;98692.97;4942565;28;20333;-88
2024/01/05 08:52:14;;;;;;;9.13;2.13;;;8.70;99.90;;;8.61;73.44;98692.88;4993543;28;20041;-87
2024/01/05 08:54:41;;;;;;;8.38;1.65;;;8.80;99.90;;;8.67;74.28;98693.75;5010832;28;20111;-87
2024/01/05 08:57:11;;;;;;;6.05;1.60;;;8.80;99.90;;;8.63;72.96;98697.94;4995947;28;20470;-87
2024/01/05 08:59:39;;;;;;;7.97;1.35;;;8.80;99.90;;;8.54;71.31;98694.91;5011057;28;20073;-87
2024/01/05 09:02:08;;;;;;;3.63;1.10;;;8.80;99.90;;;8.58;70.57;98693.34;4985572;28;20043;-87
2024/01/05 09:04:36;;;;;;;4.68;1.23;;;8.80;99.90;;;8.59;71.15;98695.00;5001992;28;20042;-87
2024/01/05 09:07:04;;;;;;;7.13;1.50;;;8.70;99.90;;;8.55;71.07;98693.06;4982487;28;20042;-87
2024/01/05 09:09:31;;;;;;;5.68;1.25;;;8.70;99.90;;;8.59;71.53;98697.66;4996760;28;20042;-87
2024/01/05 09:11:59;;;;;;;6.93;1.25;;;8.70;99.90;;;8.59;72.19;98704.78;4995792;28;20057;-87
2024/01/05 09:14:26;;;;;;;5.95;1.23;;;8.70;99.90;;;8.62;71.58;98709.63;4993419;28;20043;-87
2024/01/05 09:16:54;;;;;;;3.88;1.00;;;8.70;99.90;;;8.64;71.58;98707.56;4979085;28;20053;-87
2024/01/05 09:19:24;;;;;;;6.05;1.23;;;8.70;99.90;;;8.61;71.33;98711.47;4995496;28;20100;-87
2024/01/05 09:21:51;;;;;;;3.83;1.20;;;8.70;99.90;;;8.60;71.07;98717.03;5011599;28;20473;-87
2024/01/05 09:24:19;;;;;;;6.78;1.42;;;8.70;99.90;;;8.57;71.29;98718.31;4990950;28;20130;-87
2024/01/05 09:26:48;;;;;;;4.38;1.10;;;8.70;99.90;;;8.58;72.15;98722.56;4996796;28;20085;-87
2024/01/05 09:29:15;;;;;;;5.43;1.35;;;8.70;99.90;;;8.59;71.55;98718.06;4995893;28;20437;-87
2024/01/05 09:31:47;;;;;;;5.70;1.23;;;8.70;99.90;;;8.62;72.10;98725.56;4994025;28;20521;-87
2024/01/05 09:34:14;;;;;;;;;;;8.70;99.90;;;8.58;71.61;98721.78;4979610;28;20502;-87
2024/01/05 09:36:43;;;;;;;3.83;0.90;;;8.70;99.90;;;8.50;69.75;98729.13;4992384;28;19921;-87
2024/01/05 09:39:13;;;;;;;2.80;0.80;;;8.70;99.90;;;8.49;68.55;98718.72;4975793;28;20221;-87
2024/01/05 09:41:42;;;;;;;2.50;0.75;;;8.60;99.90;;;8.50;68.87;98738.94;4960923;28;20047;-87
2024/01/05 09:44:12;;;;;;;4.20;0.70;;;8.60;99.90;;;8.45;68.55;98737.00;4975910;28;20102;-87
2024/01/05 09:46:42;;;;;;;3.67;0.70;;;8.60;99.90;;;8.50;69.48;98736.28;4977168;28;20057;-87
2024/01/05 09:49:11;;;;;;;3.33;0.65;;;8.60;99.90;;;8.51;68.17;98736.03;4995339;28;20062;-87
2024/01/05 09:51:39;;;;;;;2.78;0.70;;;8.60;99.90;;;8.46;67.02;98740.47;4980856;28;20129;-86
2024/01/05 09:54:08;;;;;;;1.70;0.60;;;8.60;99.90;;;8.52;67.62;98742.16;5000110;28;20063;-87
2024/01/05 09:56:39;;;;;;;1.77;0.57;;;8.80;99.90;;;8.53;67.65;98735.78;5011070;28;20054;-87
2024/01/05 09:59:07;;;;;;;3.03;0.60;;;8.70;99.90;;;8.60;68.17;98740.97;4993516;28;20568;-87
2024/01/05 10:01:36;;;;;;;4.63;0.68;;;8.70;99.90;;;8.49;65.59;98732.00;4994352;28;20038;-88
2024/01/05 10:04:03;;;;;;;1.58;0.70;;;8.70;99.90;;;8.49;67.66;98737.31;4994750;28;20051;-87
2024/01/05 10:06:32;;;;;;;1.70;0.60;;;8.70;99.90;;;8.49;68.16;98735.47;4991397;28;20047;-87
2024/01/05 10:09:02;;;;;;;2.05;0.60;;;8.70;99.90;;;8.52;67.34;98726.22;4976971;28;20572;-87
2024/01/05 10:11:32;;;;;;;1.83;0.70;;;8.70;99.90;;;8.57;67.91;98725.50;4994530;28;20054;-86
2024/01/05 10:14:04;;;;;;;4.63;0.60;;;8.70;99.90;;;8.59;67.53;98724.22;4976315;28;20503;-87
2024/01/05 10:16:37;;;;;;;3.92;0.60;;;8.70;99.90;;;8.62;67.22;98722.91;4995590;28;20046;-87
2024/01/05 10:19:12;;;;;;;2.83;0.70;;;8.70;99.90;;;8.60;67.65;98728.47;4988439;28;20042;-87
2024/01/05 10:21:41;;;;;;;1.85;0.70;;;8.70;99.90;;;8.56;66.46;98730.00;4986854;28;20050;-87
2024/01/05 10:24:22;;;;;;;4.00;0.73;;;8.70;99.90;;;8.51;65.59;98722.75;4984927;28;20528;-86
2024/01/05 10:27:04;;;;;;;2.55;0.70;;;8.60;99.90;;;8.46;65.77;98729.84;4993884;28;20054;-87
2024/01/05 10:29:32;;;;;;;2.90;1.23;;;8.60;99.90;;;8.46;66.15;98724.53;4994496;28;20110;-87
2024/01/05 10:32:15;;;;;;;1.88;0.60;;;8.60;99.90;;;8.40;65.60;98728.94;4994323;28;20043;-86